Terminal Aerodrome Forecast
Issued by NWS Shreveport, LA

Home | Current Version | Previous Version | Text Only | Print | Product List | Glossary On
Versions: 1 2 3 4 5 6 7 8 9 10 11 12 13
000
FTUS44 KSHV 161720
TAFTXK
TAF
KTXK 161720Z 1618/1718 19007KT P6SM BKN250
     FM162200 17007KT P6SM SCT100 BKN150 BKN250
     FM170000 16005KT P6SM VCSH SCT050 BKN080
     FM170200 14006KT P6SM -RA BKN025 BKN030
     FM170600 VRB06KT 3SM SHRA BR OVC007
     FM171100 15004KT 4SM BR VCSH OVC005=

USA.gov is the U.S. government's official web portal to all federal, state and local government web resources and services.